Time;durP1;ratioP1;P1;durP2;ratioP2;P2;SDS_P1;SDS_P2;PMS_P1;PMS_P2;Temp;Humidity;BMP_temperature;BMP_pressure;BME280_temperature;BME280_humidity;BME280_pressure;Samples;Min_cycle;Max_cycle;Signal;HPM_P1;HPM_P2
2023/01/14 04:01:47;;;;;;;7.17;6.57;;;5.00;99.90;;;;;;5322489;23;20245;-76
2023/01/14 04:04:14;;;;;;;7.17;5.80;;;4.90;99.90;;;;;;4920206;29;20653;-75
2023/01/14 04:06:40;;;;;;;7.37;6.90;;;4.80;99.90;;;;;;4934164;29;20186;-76
2023/01/14 04:09:07;;;;;;;5.27;4.87;;;4.80;99.90;;;;;;4917680;29;20204;-76
2023/01/14 04:11:33;;;;;;;6.63;4.77;;;4.80;99.90;;;;;;4924061;29;20266;-75
2023/01/14 04:16:44;;;;;;;5.60;5.10;;;4.80;99.90;;;;;;4914370;29;20219;-75
2023/01/14 04:19:10;;;;;;;9.80;4.60;;;4.80;99.90;;;;;;4915290;29;20186;-77
2023/01/14 04:21:35;;;;;;;9.10;4.70;;;4.80;99.90;;;;;;4917789;29;20286;-77
2023/01/14 04:24:01;;;;;;;7.70;5.97;;;4.90;99.90;;;;;;4899688;29;20175;-75
2023/01/14 04:26:30;;;;;;;8.27;6.13;;;4.90;99.90;;;;;;4883288;29;20175;-75
2023/01/14 04:28:55;;;;;;;6.83;6.23;;;4.80;99.90;;;;;;4915753;29;20540;-77
2023/01/14 04:31:22;;;;;;;7.77;7.10;;;4.70;99.90;;;;;;4898778;29;20213;-76
2023/01/14 04:33:47;;;;;;;7.57;6.97;;;4.60;99.90;;;;;;4898976;29;20656;-77
2023/01/14 04:36:13;;;;;;;9.90;7.80;;;4.70;99.90;;;;;;4916139;29;20187;-77
2023/01/14 04:38:39;;;;;;;6.23;5.70;;;4.70;99.90;;;;;;4898279;29;20220;-76
2023/01/14 04:41:05;;;;;;;5.13;4.73;;;4.60;99.90;;;;;;4898925;29;20682;-77
2023/01/14 04:43:31;;;;;;;5.10;4.63;;;4.60;99.90;;;;;;4898994;29;20686;-76
2023/01/14 04:45:56;;;;;;;7.70;4.83;;;4.70;99.90;;;;;;4915822;29;20222;-77
2023/01/14 04:48:24;;;;;;;6.23;5.10;;;4.80;99.90;;;;;;4901160;29;20188;-77
2023/01/14 04:50:51;;;;;;;7.13;5.13;;;4.90;99.90;;;;;;4880030;29;20207;-76
2023/01/14 04:53:21;;;;;;;7.33;5.13;;;4.90;99.90;;;;;;4896557;29;20607;-76
2023/01/14 04:55:50;;;;;;;5.27;4.73;;;5.00;99.90;;;;;;4892431;29;20210;-78
2023/01/14 04:58:18;;;;;;;9.73;5.10;;;5.00;99.90;;;;;;4898433;29;20234;-76
2023/01/14 05:00:44;;;;;;;5.50;5.20;;;5.00;99.90;;;;;;4898099;29;20215;-76
2023/01/14 05:03:13;;;;;;;6.73;6.03;;;5.00;99.90;;;;;;4915771;29;20205;-76
2023/01/14 05:05:39;;;;;;;6.47;5.87;;;5.20;99.90;;;;;;4916673;29;20179;-77
2023/01/14 05:08:07;;;;;;;6.03;5.53;;;5.20;99.90;;;;;;4897272;29;20187;-77
2023/01/14 05:10:33;;;;;;;5.50;5.00;;;5.20;99.90;;;;;;4896007;29;20273;-77
2023/01/14 05:13:00;;;;;;;5.03;4.60;;;5.20;99.90;;;;;;4879404;29;20210;-77
2023/01/14 05:15:31;;;;;;;5.30;4.83;;;5.30;99.90;;;;;;4895685;29;20195;-77
2023/01/14 05:17:57;;;;;;;7.30;4.90;;;5.40;99.90;;;;;;4878742;29;20704;-77
2023/01/14 05:20:23;;;;;;;5.53;5.00;;;5.40;99.90;;;;;;4895622;29;20199;-77
2023/01/14 05:22:50;;;;;;;6.67;5.33;;;5.50;99.90;;;;;;4903562;29;20643;-77
2023/01/14 05:25:16;;;;;;;6.87;4.93;;;5.40;99.90;;;;;;4914559;29;20187;-76
2023/01/14 05:27:42;;;;;;;11.50;4.77;;;5.40;99.90;;;;;;4914344;29;20693;-77
2023/01/14 05:30:08;;;;;;;8.03;5.27;;;5.50;99.90;;;;;;4897487;29;20192;-77
2023/01/14 05:32:34;;;;;;;6.17;5.07;;;5.40;99.90;;;;;;4897426;29;20289;-76
2023/01/14 05:35:00;;;;;;;5.27;4.90;;;5.40;99.90;;;;;;4914639;29;20206;-76
2023/01/14 05:37:26;;;;;;;6.13;5.57;;;5.50;99.90;;;;;;4913673;29;20286;-76
2023/01/14 05:39:51;;;;;;;6.80;4.80;;;5.40;99.90;;;;;;4897517;29;20174;-76
2023/01/14 05:47:47;;;;;;;6.00;5.50;;;5.60;99.90;;;;;;4916957;29;20321;-78
2023/01/14 05:50:13;;;;;;;5.80;5.30;;;5.60;99.90;;;;;;4897997;29;20278;-77
2023/01/14 05:52:39;;;;;;;7.03;5.87;;;5.60;99.90;;;;;;4915042;29;20725;-77
2023/01/14 05:55:05;;;;;;;8.40;7.80;;;5.50;99.90;;;;;;4898293;29;20274;-77
2023/01/14 05:57:31;;;;;;;9.23;8.43;;;5.40;99.90;;;;;;4915036;29;20309;-77
2023/01/14 05:59:57;;;;;;;9.53;8.70;;;5.30;99.90;;;;;;4898937;29;20183;-77
2023/01/14 06:07:55;;;;;;;6.57;6.03;;;5.00;99.90;;;;;;4903298;29;20194;-77
2023/01/14 06:10:24;;;;;;;6.47;5.33;;;4.90;99.90;;;;;;4887562;29;20238;-76
2023/01/14 06:13:02;;;;;;;6.60;5.63;;;4.80;99.90;;;;;;4901026;29;20274;-77
2023/01/14 06:15:33;;;;;;;5.70;5.20;;;4.80;99.90;;;;;;4898091;29;20731;-77
2023/01/14 06:18:09;;;;;;;5.80;5.30;;;4.70;99.90;;;;;;4885770;29;20245;-77
2023/01/14 06:20:39;;;;;;;7.13;5.77;;;4.70;99.90;;;;;;4898175;29;20615;-77
2023/01/14 06:23:05;;;;;;;7.73;7.00;;;4.60;99.90;;;;;;4915458;29;20567;-77
2023/01/14 06:25:32;;;;;;;7.17;6.47;;;4.70;99.90;;;;;;4915408;29;20193;-77
2023/01/14 06:28:02;;;;;;;7.30;6.57;;;4.70;99.90;;;;;;4918606;29;20194;-77
2023/01/14 06:30:28;;;;;;;7.17;5.50;;;4.70;99.90;;;;;;4923052;29;20190;-77
2023/01/14 06:32:55;;;;;;;6.00;5.40;;;4.70;99.90;;;;;;4902706;29;20198;-77
2023/01/14 06:35:22;;;;;;;6.67;6.17;;;4.80;99.90;;;;;;4900796;29;20182;-77
2023/01/14 06:37:48;;;;;;;9.43;7.27;;;4.70;99.90;;;;;;4917305;29;20218;-76
2023/01/14 06:40:14;;;;;;;8.30;7.70;;;4.60;99.90;;;;;;4916996;29;20308;-77
2023/01/14 06:42:41;;;;;;;9.00;8.50;;;4.60;99.90;;;;;;4900541;29;20193;-76
2023/01/14 06:45:11;;;;;;;6.63;6.10;;;4.60;99.90;;;;;;4896404;29;20215;-77
2023/01/14 06:47:37;;;;;;;5.93;5.50;;;4.50;99.90;;;;;;4881213;29;20196;-77
2023/01/14 06:50:04;;;;;;;6.97;6.67;;;4.40;99.90;;;;;;4898247;29;20191;-77
2023/01/14 06:52:31;;;;;;;10.77;9.83;;;4.30;99.90;;;;;;4898298;29;20576;-77
2023/01/14 06:54:58;;;;;;;6.37;5.97;;;4.20;99.90;;;;;;4881475;29;20191;-76
2023/01/14 06:57:25;;;;;;;5.17;4.80;;;4.10;99.90;;;;;;4881078;29;20222;-76
2023/01/14 06:59:51;;;;;;;5.17;4.77;;;4.00;99.90;;;;;;4891706;29;20230;-72
2023/01/14 07:02:17;;;;;;;5.70;5.20;;;4.00;99.90;;;;;;4899267;29;20275;-73
2023/01/14 07:04:43;;;;;;;7.87;4.90;;;4.00;99.90;;;;;;4916847;29;20265;-72
2023/01/14 07:07:10;;;;;;;8.27;7.60;;;4.10;99.90;;;;;;4913605;29;20194;-72
2023/01/14 07:09:36;;;;;;;11.00;10.20;;;4.10;99.90;;;;;;4896709;29;20595;-72
2023/01/14 07:12:02;;;;;;;10.83;9.83;;;4.30;99.90;;;;;;4916333;29;20567;-72
2023/01/14 07:14:28;;;;;;;9.00;8.33;;;4.30;99.90;;;;;;4921135;29;20182;-72
2023/01/14 07:16:54;;;;;;;11.80;10.50;;;4.30;99.90;;;;;;4918086;29;20253;-73
2023/01/14 07:19:20;;;;;;;13.37;12.17;;;4.40;99.90;;;;;;4918674;29;20225;-71
2023/01/14 07:21:46;;;;;;;40.23;37.73;;;4.50;99.90;;;;;;4935707;29;20265;-72
2023/01/14 07:24:12;;;;;;;12.43;11.17;;;4.60;99.90;;;;;;4936159;29;20417;-71
2023/01/14 07:26:38;;;;;;;12.33;9.50;;;4.60;99.90;;;;;;4926610;29;20202;-72
2023/01/14 07:29:04;;;;;;;8.43;7.13;;;4.70;99.90;;;;;;4897365;29;20210;-72
2023/01/14 07:31:30;;;;;;;11.37;7.53;;;4.80;99.90;;;;;;4880847;29;20210;-72
2023/01/14 07:33:55;;;;;;;11.17;7.13;;;4.90;99.90;;;;;;4880693;29;20598;-72
2023/01/14 07:36:21;;;;;;;8.90;5.77;;;5.00;99.90;;;;;;4881003;29;20282;-72
2023/01/14 07:38:47;;;;;;;8.70;6.27;;;5.00;99.90;;;;;;4896609;29;20183;-72
2023/01/14 07:41:18;;;;;;;9.63;6.70;;;5.10;99.90;;;;;;4907600;29;20681;-72
2023/01/14 07:43:47;;;;;;;7.80;6.30;;;5.20;99.90;;;;;;4899545;29;20293;-72
2023/01/14 07:46:14;;;;;;;8.60;7.70;;;5.30;99.90;;;;;;4916235;29;20190;-72
2023/01/14 07:48:41;;;;;;;11.07;8.37;;;5.40;99.90;;;;;;4899003;29;20215;-72
2023/01/14 07:51:08;;;;;;;11.33;8.70;;;5.40;99.90;;;;;;4916263;29;20799;-72
2023/01/14 07:53:34;;;;;;;12.77;8.67;;;5.50;99.90;;;;;;4899072;29;20190;-72
2023/01/14 07:56:05;;;;;;;11.57;7.53;;;5.50;99.90;;;;;;4898125;29;20333;-72
2023/01/14 07:58:31;;;;;;;12.30;7.60;;;5.60;99.90;;;;;;4880367;29;20227;-72
2023/01/14 08:00:57;;;;;;;7.70;7.10;;;5.60;99.90;;;;;;4880224;29;20625;-73
2023/01/14 08:03:24;;;;;;;8.80;8.03;;;5.60;99.90;;;;;;4905862;29;20186;-72
2023/01/14 08:05:50;;;;;;;11.63;8.70;;;5.70;99.90;;;;;;4935085;29;20543;-73
2023/01/14 08:08:17;;;;;;;12.83;7.90;;;5.70;99.90;;;;;;4922824;29;20188;-73
2023/01/14 08:10:43;;;;;;;11.97;7.50;;;5.80;99.90;;;;;;4897010;29;20259;-72
2023/01/14 08:13:13;;;;;;;9.27;8.37;;;5.90;99.90;;;;;;4896869;29;20200;-72
2023/01/14 08:15:38;;;;;;;11.70;10.50;;;6.00;99.90;;;;;;4897035;29;20191;-72
2023/01/14 08:18:04;;;;;;;15.30;14.03;;;6.10;99.90;;;;;;4896331;29;20215;-73
2023/01/14 08:20:31;;;;;;;13.03;9.33;;;6.20;99.90;;;;;;4896010;29;20543;-73
2023/01/14 08:22:58;;;;;;;11.00;8.33;;;6.40;99.90;;;;;;4898763;29;20179;-73
2023/01/14 08:25:25;;;;;;;13.40;12.10;;;6.50;99.90;;;;;;4898446;29;20635;-73
2023/01/14 08:27:50;;;;;;;9.73;8.70;;;6.60;99.90;;;;;;4914418;29;20242;-72
2023/01/14 08:30:17;;;;;;;8.80;8.00;;;6.60;99.90;;;;;;4898959;29;20183;-74
2023/01/14 08:32:43;;;;;;;8.20;7.50;;;6.70;99.90;;;;;;4915981;29;20235;-73
2023/01/14 08:35:09;;;;;;;9.90;7.10;;;6.70;99.90;;;;;;4915342;29;20190;-74
2023/01/14 08:37:35;;;;;;;9.43;8.53;;;6.80;99.90;;;;;;4896522;29;20266;-73
2023/01/14 08:40:01;;;;;;;12.93;8.27;;;6.80;99.90;;;;;;4896851;29;20327;-73
2023/01/14 08:42:27;;;;;;;10.13;9.23;;;6.80;99.90;;;;;;4880039;29;20200;-72
2023/01/14 08:44:53;;;;;;;9.63;8.63;;;6.90;99.90;;;;;;4880036;29;20220;-72
2023/01/14 08:47:19;;;;;;;11.30;10.27;;;6.90;99.90;;;;;;4895738;29;20266;-72
2023/01/14 08:49:45;;;;;;;10.97;10.00;;;7.00;99.90;;;;;;4885010;29;20190;-74
2023/01/14 08:52:11;;;;;;;13.20;9.87;;;7.10;99.90;;;;;;4898655;29;20581;-72
2023/01/14 08:54:37;;;;;;;8.60;7.90;;;7.20;99.90;;;;;;4899064;29;20191;-72
2023/01/14 08:57:02;;;;;;;8.47;7.77;;;7.20;99.90;;;;;;4898648;29;20215;-72
2023/01/14 08:59:28;;;;;;;10.17;7.97;;;7.30;99.90;;;;;;4915293;29;20187;-72
2023/01/14 09:01:54;;;;;;;12.90;9.60;;;7.40;99.90;;;;;;4915076;29;20214;-73
2023/01/14 09:04:24;;;;;;;13.63;10.07;;;7.50;99.90;;;;;;4886228;29;20188;-72
2023/01/14 09:18:00;;;;;;;13.03;12.13;;;7.90;99.90;;;;;;4906098;29;20627;-72
2023/01/14 09:20:30;;;;;;;14.53;13.33;;;7.90;99.90;;;;;;4930439;29;20193;-72
2023/01/14 09:22:57;;;;;;;14.03;12.93;;;8.00;99.90;;;;;;4933836;29;20543;-72
2023/01/14 09:25:22;;;;;;;14.13;12.90;;;8.10;99.90;;;;;;4933878;29;20276;-72
2023/01/14 09:27:48;;;;;;;13.93;12.93;;;8.20;99.90;;;;;;4932729;29;20285;-72
2023/01/14 09:30:14;;;;;;;12.43;11.40;;;8.40;99.90;;;;;;4922764;29;20191;-74
2023/01/14 09:32:40;;;;;;;10.17;9.37;;;8.50;99.90;;;;;;4913043;29;20321;-71
2023/01/14 09:35:07;;;;;;;10.00;9.07;;;8.60;99.90;;;;;;4913870;29;20188;-76
2023/01/14 09:37:33;;;;;;;8.93;7.70;;;8.60;99.90;;;;;;4913825;29;20269;-76
2023/01/14 09:40:00;;;;;;;8.70;7.83;;;8.60;99.90;;;;;;4893691;29;20186;-73
2023/01/14 09:42:36;;;;;;;12.93;7.80;;;8.60;99.90;;;;;;4900934;29;20788;-73
2023/01/14 09:45:26;;;;;;;8.10;6.30;;;8.60;99.90;;;;;;4901628;29;20186;-73
2023/01/14 09:47:54;;;;;;;6.30;5.70;;;8.70;99.90;;;;;;4928972;29;20695;-74
2023/01/14 09:50:35;;;;;;;7.57;5.47;;;8.70;99.90;;;;;;4928988;29;20275;-72
2023/01/14 09:53:20;;;;;;;5.33;4.87;;;8.70;99.90;;;;;;4933449;29;20186;-72
2023/01/14 09:55:53;;;;;;;8.73;6.50;;;8.70;99.90;;;;;;4932686;29;20190;-73
2023/01/14 09:58:34;;;;;;;8.13;6.47;;;8.70;99.90;;;;;;4930258;29;20213;-73
2023/01/14 10:01:12;;;;;;;6.97;6.07;;;8.70;99.90;;;;;;4898401;29;20356;-73
2023/01/14 10:04:03;;;;;;;6.50;6.00;;;8.80;99.90;;;;;;4937188;29;20616;-74
2023/01/14 10:06:29;;;;;;;6.50;5.90;;;8.80;99.90;;;;;;4937010;29;20178;-68
2023/01/14 10:09:03;;;;;;;6.83;6.20;;;8.90;99.90;;;;;;4919704;29;20550;-68
2023/01/14 10:11:34;;;;;;;7.20;6.20;;;9.00;99.90;;;;;;4936546;29;20201;-68
2023/01/14 10:14:12;;;;;;;8.97;6.97;;;9.00;99.90;;;;;;4943587;23;20262;-75
2023/01/14 10:16:42;;;;;;;8.87;7.37;;;9.10;99.90;;;;;;4927783;29;20216;-75
2023/01/14 10:19:20;;;;;;;7.03;6.43;;;9.10;99.90;;;;;;4935085;29;20273;-75
2023/01/14 10:22:06;;;;;;;7.03;6.27;;;9.20;99.90;;;;;;4935545;29;20536;-75
2023/01/14 10:24:32;;;;;;;9.80;8.20;;;9.40;99.90;;;;;;4935155;29;20735;-75
2023/01/14 10:26:58;;;;;;;6.50;5.90;;;9.50;99.90;;;;;;4907911;29;20656;-74
2023/01/14 10:29:26;;;;;;;6.50;6.00;;;9.60;99.90;;;;;;4900622;29;20190;-75
2023/01/14 10:31:59;;;;;;;7.57;5.10;;;9.80;99.90;;;;;;4901730;29;20183;-75
2023/01/14 10:34:31;;;;;;;7.77;5.53;;;9.90;99.90;;;;;;4910424;29;20242;-74
2023/01/14 10:36:57;;;;;;;6.10;5.47;;;10.20;99.90;;;;;;4934201;29;20211;-73
2023/01/14 10:39:23;;;;;;;6.20;5.70;;;10.30;99.90;;;;;;4901882;29;20187;-73
2023/01/14 10:41:50;;;;;;;6.53;6.00;;;10.40;99.90;;;;;;4917277;29;20640;-73
2023/01/14 10:44:29;;;;;;;6.07;5.63;;;10.60;99.90;;;;;;4917057;29;20729;-74
2023/01/14 10:47:01;;;;;;;6.90;6.13;;;10.70;99.90;;;;;;4900221;29;20283;-74
2023/01/14 10:49:59;;;;;;;7.73;6.67;;;10.80;99.90;;;;;;4917281;29;20190;-73
2023/01/14 10:52:29;;;;;;;11.37;7.30;;;10.70;99.90;;;;;;4909244;29;20195;-74
2023/01/14 10:55:00;;;;;;;8.73;6.90;;;10.60;99.90;;;;;;4916589;29;20218;-74
2023/01/14 10:57:31;;;;;;;11.17;10.17;;;10.60;99.90;;;;;;4899860;29;20223;-74
2023/01/14 10:59:58;;;;;;;11.70;10.77;;;10.70;99.90;;;;;;4916876;29;20179;-75
2023/01/14 11:02:30;;;;;;;12.80;11.90;;;10.70;99.90;;;;;;4916996;29;20179;-74
2023/01/14 11:04:57;;;;;;;10.43;9.63;;;10.70;99.90;;;;;;4899619;29;20218;-74
2023/01/14 11:07:26;;;;;;;12.10;11.40;;;10.80;99.90;;;;;;4916344;29;20557;-74
2023/01/14 11:09:54;;;;;;;13.10;12.13;;;10.80;99.90;;;;;;4896754;29;20191;-74
2023/01/14 11:12:31;;;;;;;13.33;12.53;;;10.90;99.90;;;;;;4883960;29;20656;-73
2023/01/14 11:14:57;;;;;;;10.70;9.83;;;11.00;99.90;;;;;;4893644;29;20699;-73
2023/01/14 11:17:31;;;;;;;8.33;7.70;;;11.10;99.90;;;;;;4906897;29;20309;-72
2023/01/14 11:20:19;;;;;;;8.00;7.40;;;11.20;99.90;;;;;;4915923;29;20217;-72
2023/01/14 11:22:53;;;;;;;8.67;7.90;;;11.10;99.90;;;;;;4949262;29;20209;-72
2023/01/14 11:25:22;;;;;;;9.00;8.20;;;11.10;99.90;;;;;;4946813;29;20225;-72
2023/01/14 11:27:49;;;;;;;9.37;8.63;;;10.90;99.90;;;;;;4941581;29;20187;-72
2023/01/14 11:30:18;;;;;;;11.67;10.80;;;10.70;99.90;;;;;;4946311;29;20756;-73
2023/01/14 11:32:50;;;;;;;11.40;10.50;;;10.50;99.90;;;;;;4935411;29;20526;-72
2023/01/14 11:35:26;;;;;;;12.67;11.67;;;10.50;99.90;;;;;;4936210;29;20674;-72
2023/01/14 11:37:56;;;;;;;10.77;10.00;;;10.40;99.90;;;;;;4929074;29;20229;-73
2023/01/14 11:43:15;;;;;;;11.40;10.70;;;10.30;99.90;;;;;;4908256;29;20557;-74
2023/01/14 11:45:41;;;;;;;11.77;11.03;;;10.30;99.90;;;;;;4923869;29;20191;-74
2023/01/14 11:48:28;;;;;;;10.53;9.70;;;10.30;99.90;;;;;;4919270;29;20201;-73
2023/01/14 11:51:03;;;;;;;10.73;9.87;;;10.40;99.90;;;;;;4908051;29;20277;-75
2023/01/14 11:53:53;;;;;;;12.17;11.20;;;10.50;99.90;;;;;;4918707;29;20214;-75
2023/01/14 11:56:25;;;;;;;12.70;11.67;;;10.60;99.90;;;;;;4931210;29;20189;-75
2023/01/14 11:58:51;;;;;;;14.00;12.70;;;10.70;99.90;;;;;;4936426;29;20308;-75
2023/01/14 12:01:37;;;;;;;14.73;13.40;;;10.70;99.90;;;;;;4937134;29;20651;-75
2023/01/14 12:04:10;;;;;;;11.13;10.33;;;10.90;99.90;;;;;;4919852;29;20773;-75
2023/01/14 12:06:57;;;;;;;11.77;11.07;;;11.00;99.90;;;;;;4929154;29;20211;-74
2023/01/14 12:09:29;;;;;;;13.13;12.13;;;11.00;99.90;;;;;;4915121;29;20742;-74
2023/01/14 12:12:03;;;;;;;11.50;10.67;;;11.10;99.90;;;;;;4899268;29;20187;-75
2023/01/14 12:17:37;;;;;;;11.30;10.53;;;11.00;99.90;;;;;;4931949;29;20230;-74
2023/01/14 12:20:13;;;;;;;9.07;8.20;;;10.90;99.90;;;;;;4916369;29;20187;-75
2023/01/14 12:23:00;;;;;;;9.77;9.10;;;10.90;99.90;;;;;;4916001;29;20183;-75
2023/01/14 12:25:40;;;;;;;7.27;6.77;;;10.90;99.90;;;;;;4915534;29;20203;-74
2023/01/14 12:28:25;;;;;;;7.50;7.00;;;10.90;99.90;;;;;;4898891;29;20258;-74
2023/01/14 12:31:15;;;;;;;14.17;12.77;;;10.90;99.90;;;;;;4915908;29;20191;-75
2023/01/14 12:34:12;;;;;;;6.57;6.17;;;10.90;99.90;;;;;;4915806;29;20203;-74
2023/01/14 12:36:51;;;;;;;6.57;5.90;;;11.00;99.90;;;;;;4894340;29;20203;-75
2023/01/14 12:45:41;;;;;;;5.80;5.40;;;10.90;99.90;;;;;;4915505;29;20223;-74
2023/01/14 12:48:09;;;;;;;9.30;7.70;;;10.80;99.90;;;;;;4915241;29;20191;-73
2023/01/14 12:50:42;;;;;;;6.00;5.50;;;10.80;99.90;;;;;;4915365;29;20194;-73
2023/01/14 12:53:23;;;;;;;5.63;5.13;;;10.70;99.90;;;;;;4897924;29;20187;-74
2023/01/14 12:55:50;;;;;;;5.10;4.70;;;10.70;99.90;;;;;;4915669;29;20291;-73
2023/01/14 12:58:20;;;;;;;13.23;10.20;;;10.60;99.90;;;;;;4898069;29;20211;-73
2023/01/14 13:00:53;;;;;;;4.90;4.47;;;10.60;99.90;;;;;;4915536;29;20670;-74
2023/01/14 13:03:29;;;;;;;4.93;4.63;;;10.50;99.90;;;;;;4915222;29;20188;-73
2023/01/14 13:05:55;;;;;;;5.60;5.17;;;10.40;99.90;;;;;;4914869;29;20208;-73
2023/01/14 13:08:31;;;;;;;6.80;6.13;;;10.40;99.90;;;;;;4914472;29;20651;-74
2023/01/14 13:11:06;;;;;;;5.60;5.10;;;10.30;99.90;;;;;;4915083;29;20190;-74
2023/01/14 13:13:40;;;;;;;5.20;4.83;;;10.30;99.90;;;;;;4914657;29;20239;-74
2023/01/14 13:16:35;;;;;;;5.40;4.80;;;10.20;99.90;;;;;;4914835;29;20242;-74
2023/01/14 13:19:22;;;;;;;10.93;9.43;;;10.20;99.90;;;;;;4897419;29;20195;-74
2023/01/14 13:21:53;;;;;;;5.47;5.07;;;10.30;99.90;;;;;;4896899;29;20210;-74
2023/01/14 13:24:44;;;;;;;6.63;5.70;;;10.30;99.90;;;;;;4914598;29;20230;-74
2023/01/14 13:27:40;;;;;;;4.57;4.20;;;10.30;99.90;;;;;;4897584;29;20198;-74
2023/01/14 13:30:18;;;;;;;5.67;4.87;;;10.40;99.90;;;;;;4914528;29;20198;-74
2023/01/14 13:32:59;;;;;;;5.87;4.93;;;10.30;99.90;;;;;;4914853;29;20326;-74
2023/01/14 13:35:33;;;;;;;4.73;4.43;;;10.30;99.90;;;;;;4897137;29;20232;-74
2023/01/14 13:38:23;;;;;;;8.93;8.03;;;10.30;99.90;;;;;;4897485;29;20265;-74
2023/01/14 13:41:06;;;;;;;6.13;5.40;;;10.20;99.90;;;;;;4913800;29;20191;-74
2023/01/14 13:43:53;;;;;;;5.57;5.17;;;10.20;99.90;;;;;;4914300;29;20253;-74
2023/01/14 13:46:23;;;;;;;8.67;4.13;;;10.20;99.90;;;;;;4913879;29;20191;-74
2023/01/14 13:48:53;;;;;;;5.10;4.67;;;10.10;99.90;;;;;;4896981;29;20253;-74
2023/01/14 13:51:28;;;;;;;5.83;5.20;;;10.20;99.90;;;;;;4897388;29;20195;-74
2023/01/14 13:54:02;;;;;;;4.50;4.10;;;10.20;99.90;;;;;;4914577;29;20233;-74
2023/01/14 13:56:29;;;;;;;10.17;7.43;;;10.20;99.90;;;;;;4915643;29;20182;-74
2023/01/14 13:58:58;;;;;;;8.40;5.80;;;10.20;99.90;;;;;;4936343;29;20228;-74
2023/01/14 14:01:43;;;;;;;6.50;5.87;;;10.20;99.90;;;;;;4899882;29;20183;-73
2023/01/14 14:04:13;;;;;;;7.80;5.70;;;10.30;99.90;;;;;;4918165;29;20332;-74
2023/01/14 14:06:42;;;;;;;5.63;5.13;;;10.20;99.90;;;;;;4899373;29;20183;-73
2023/01/14 14:09:31;;;;;;;9.20;6.60;;;10.20;99.90;;;;;;4916230;29;20187;-73
2023/01/14 14:15:24;;;;;;;7.27;6.57;;;10.10;99.90;;;;;;4913610;29;20222;-74
2023/01/14 14:17:57;;;;;;;9.03;5.00;;;10.10;99.90;;;;;;4896841;29;20674;-74
2023/01/14 14:20:26;;;;;;;7.87;7.07;;;10.10;99.90;;;;;;4914346;29;20210;-75
2023/01/14 14:23:00;;;;;;;6.60;5.73;;;10.10;99.90;;;;;;4914050;29;20183;-75
2023/01/14 14:25:38;;;;;;;7.40;6.67;;;10.10;99.90;;;;;;4897158;29;20209;-75
2023/01/14 14:28:12;;;;;;;8.20;7.50;;;10.10;99.90;;;;;;4913464;29;20270;-76
2023/01/14 14:30:48;;;;;;;8.40;6.97;;;10.10;99.90;;;;;;4913211;29;20210;-74
2023/01/14 14:33:40;;;;;;;12.27;10.93;;;10.10;99.90;;;;;;4896834;29;20209;-74
2023/01/14 14:36:16;;;;;;;11.03;7.97;;;10.10;99.90;;;;;;4913766;29;20288;-73
2023/01/14 14:38:53;;;;;;;7.60;6.90;;;10.00;99.90;;;;;;4913727;29;20215;-74
2023/01/14 14:41:26;;;;;;;7.03;6.53;;;10.00;99.90;;;;;;4914450;29;20190;-74
2023/01/14 14:44:13;;;;;;;7.87;7.00;;;10.00;99.90;;;;;;4896267;29;20211;-74
2023/01/14 14:46:39;;;;;;;7.83;7.20;;;9.90;99.90;;;;;;4913970;29;20189;-75
2023/01/14 14:49:35;;;;;;;9.47;8.80;;;9.80;99.90;;;;;;4899957;29;20191;-74
2023/01/14 14:52:11;;;;;;;16.83;15.80;;;9.80;99.90;;;;;;4915931;29;20594;-74
2023/01/14 14:54:38;;;;;;;9.73;9.13;;;9.60;99.90;;;;;;4917033;29;20206;-74
2023/01/14 14:57:10;;;;;;;7.37;6.97;;;9.60;99.90;;;;;;4899827;29;20652;-76
2023/01/14 14:59:38;;;;;;;7.40;6.60;;;9.50;99.90;;;;;;4917037;29;20242;-74
2023/01/14 15:02:21;;;;;;;7.23;6.57;;;9.40;99.90;;;;;;4917020;29;20656;-75
2023/01/14 15:04:48;;;;;;;7.63;6.77;;;9.40;99.90;;;;;;4900162;29;20306;-75
2023/01/14 15:07:15;;;;;;;6.80;6.20;;;9.40;99.90;;;;;;4899813;29;20195;-74
2023/01/14 15:09:45;;;;;;;7.80;6.90;;;9.40;99.90;;;;;;4916920;29;20230;-75
2023/01/14 15:12:16;;;;;;;8.47;7.03;;;9.40;99.90;;;;;;4916642;29;20230;-74
2023/01/14 15:14:43;;;;;;;6.97;6.37;;;9.40;99.90;;;;;;4899739;29;20228;-74
2023/01/14 15:17:19;;;;;;;8.80;8.00;;;9.40;99.90;;;;;;4916598;29;20289;-75
2023/01/14 15:19:48;;;;;;;10.80;8.63;;;9.40;99.90;;;;;;4916789;29;20194;-74
2023/01/14 15:22:17;;;;;;;8.07;7.30;;;9.40;99.90;;;;;;4916912;29;20286;-75
2023/01/14 15:24:47;;;;;;;8.33;7.63;;;9.30;99.90;;;;;;4916767;29;20680;-75
2023/01/14 15:27:19;;;;;;;9.87;9.07;;;9.30;99.90;;;;;;4916546;29;20241;-76
2023/01/14 15:30:00;;;;;;;10.43;9.60;;;9.30;99.90;;;;;;4899988;29;20603;-75
2023/01/14 15:32:27;;;;;;;10.80;10.00;;;9.40;99.90;;;;;;4916921;29;20671;-75
2023/01/14 15:35:05;;;;;;;11.40;10.47;;;9.40;99.90;;;;;;4900321;29;20207;-74
2023/01/14 15:37:31;;;;;;;10.73;10.00;;;9.50;99.90;;;;;;4918027;29;20214;-73
2023/01/14 15:40:01;;;;;;;11.07;10.27;;;9.50;99.90;;;;;;4907949;29;20181;-74
2023/01/14 15:42:27;;;;;;;10.80;10.00;;;9.40;99.90;;;;;;4912242;29;20198;-74
2023/01/14 15:44:57;;;;;;;11.43;10.60;;;9.50;99.90;;;;;;4921457;29;20207;-74
2023/01/14 15:47:23;;;;;;;9.97;9.37;;;9.40;99.90;;;;;;4916221;29;20187;-74
2023/01/14 15:49:54;;;;;;;10.87;9.77;;;9.40;99.90;;;;;;4916430;29;20240;-74
2023/01/14 15:52:31;;;;;;;10.20;9.30;;;9.40;99.90;;;;;;4915921;29;20183;-74
2023/01/14 15:55:22;;;;;;;9.77;8.80;;;9.30;99.90;;;;;;4915957;29;20234;-74
2023/01/14 15:57:50;;;;;;;6.53;6.03;;;9.30;99.90;;;;;;4898728;29;20270;-74
2023/01/14 16:00:25;;;;;;;6.13;5.60;;;9.20;99.90;;;;;;4915953;29;20612;-74
2023/01/14 16:02:52;;;;;;;5.83;5.43;;;9.10;99.90;;;;;;4898900;29;20659;-74
2023/01/14 16:05:19;;;;;;;6.07;5.67;;;9.00;99.90;;;;;;4898700;29;20638;-75
2023/01/14 16:07:45;;;;;;;6.40;5.80;;;9.00;99.90;;;;;;4895640;29;20268;-74
2023/01/14 16:10:11;;;;;;;27.93;17.37;;;8.90;99.90;;;;;;4880970;29;20243;-75
2023/01/14 16:12:37;;;;;;;16.43;11.43;;;8.90;99.90;;;;;;4881899;29;20188;-75
2023/01/14 16:15:06;;;;;;;6.73;6.33;;;9.00;99.90;;;;;;4945521;23;20333;-72
2023/01/14 16:17:31;;;;;;;9.27;8.43;;;9.10;99.90;;;;;;4952954;29;20217;-72
2023/01/14 16:19:58;;;;;;;8.60;8.10;;;9.20;99.90;;;;;;4929182;29;20194;-73
2023/01/14 16:22:24;;;;;;;9.83;9.17;;;9.40;99.90;;;;;;4934649;29;20206;-72
2023/01/14 16:24:50;;;;;;;8.70;8.20;;;9.50;99.90;;;;;;4907701;29;20686;-72
2023/01/14 16:27:24;;;;;;;13.03;11.73;;;9.50;99.90;;;;;;4915198;29;20194;-72
2023/01/14 16:29:50;;;;;;;8.97;8.20;;;9.60;99.90;;;;;;4915389;29;20199;-72
2023/01/14 16:32:16;;;;;;;6.77;6.30;;;9.70;99.90;;;;;;4915528;29;20658;-72
2023/01/14 16:34:42;;;;;;;6.60;6.10;;;9.70;99.90;;;;;;4884497;29;20212;-72
2023/01/14 16:37:09;;;;;;;4.53;4.23;;;9.80;99.90;;;;;;4896440;29;20219;-72
2023/01/14 16:39:35;;;;;;;6.07;5.77;;;9.90;99.90;;;;;;4879855;29;20190;-72
2023/01/14 16:42:01;;;;;;;8.43;8.03;;;9.90;99.90;;;;;;4880183;29;20266;-72
2023/01/14 16:44:27;;;;;;;7.43;7.13;;;10.10;99.90;;;;;;4879724;29;20259;-72
2023/01/14 16:46:52;;;;;;;10.10;9.50;;;10.10;99.90;;;;;;4880743;29;20238;-72
2023/01/14 16:49:18;;;;;;;7.43;7.13;;;10.10;99.90;;;;;;4915488;29;20286;-72
2023/01/14 16:51:44;;;;;;;14.83;12.27;;;10.10;99.90;;;;;;4915634;29;20178;-72
2023/01/14 16:54:16;;;;;;;6.40;6.00;;;10.10;99.90;;;;;;4915665;29;20562;-72
2023/01/14 16:56:42;;;;;;;5.03;4.83;;;10.20;99.90;;;;;;4915337;29;20218;-72
2023/01/14 16:59:08;;;;;;;4.67;4.37;;;10.20;99.90;;;;;;4915232;29;20226;-72
2023/01/14 17:01:34;;;;;;;5.03;4.83;;;10.30;99.90;;;;;;4907172;29;20188;-73
2023/01/14 17:04:00;;;;;;;4.40;4.10;;;10.20;99.90;;;;;;4896377;29;20203;-73
2023/01/14 17:06:26;;;;;;;4.23;4.10;;;10.30;99.90;;;;;;4896382;29;20240;-73
2023/01/14 17:08:51;;;;;;;5.37;5.07;;;10.20;99.90;;;;;;4879400;29;20554;-71
2023/01/14 17:14:01;;;;;;;4.40;4.20;;;10.10;99.90;;;;;;4896047;29;20211;-72
2023/01/14 17:16:28;;;;;;;5.27;4.87;;;10.20;99.90;;;;;;4911773;29;20707;-70
2023/01/14 17:18:54;;;;;;;4.77;4.47;;;10.20;99.90;;;;;;4914497;29;20262;-71
2023/01/14 17:21:20;;;;;;;4.30;4.10;;;10.20;99.90;;;;;;4914799;29;20179;-70
2023/01/14 17:23:46;;;;;;;4.90;4.60;;;10.20;99.90;;;;;;4898014;29;20184;-72
2023/01/14 17:26:13;;;;;;;6.37;5.77;;;10.20;99.90;;;;;;4914885;29;20187;-72
2023/01/14 17:28:40;;;;;;;8.57;7.00;;;10.20;99.90;;;;;;4896066;29;20215;-72
2023/01/14 17:31:11;;;;;;;9.33;7.43;;;10.20;99.90;;;;;;4914261;29;20191;-72
2023/01/14 17:33:38;;;;;;;6.20;5.80;;;10.20;99.90;;;;;;4914525;29;20282;-72
2023/01/14 17:36:14;;;;;;;6.27;5.70;;;10.20;99.90;;;;;;4914415;29;20181;-72
2023/01/14 17:38:41;;;;;;;6.57;6.17;;;10.20;99.90;;;;;;4914274;29;20265;-72
2023/01/14 17:43:55;;;;;;;6.63;6.17;;;10.30;99.90;;;;;;4899435;29;20192;-72
2023/01/14 17:46:21;;;;;;;12.60;11.30;;;10.30;99.90;;;;;;4895742;29;20327;-72
2023/01/14 17:48:47;;;;;;;7.93;7.23;;;10.20;99.90;;;;;;4895034;29;20305;-72
2023/01/14 17:51:12;;;;;;;7.23;6.83;;;10.30;99.90;;;;;;4895473;29;20192;-72